Time;durP1;ratioP1;P1;durP2;ratioP2;P2;SDS_P1;SDS_P2;PMS_P1;PMS_P2;Temp;Humidity;BMP_temperature;BMP_pressure;BME280_temperature;BME280_humidity;BME280_pressure;Samples;Min_cycle;Max_cycle;Signal;HPM_P1;HPM_P2
2023/11/29 00:01:56;;;;;;;;;0.00;0.00;;;;;5.55;100.00;100651.44;6304618;22;45246;-83
2023/11/29 00:04:21;;;;;;;;;0.00;0.00;;;;;5.51;100.00;100641.97;6301865;22;64557;-84
2023/11/29 00:06:46;;;;;;;;;15.00;15.00;;;;;5.49;100.00;100650.63;6304132;22;60530;-83
2023/11/29 00:09:12;;;;;;;;;0.00;0.00;;;;;5.64;100.00;100653.03;6275803;22;63402;-83
2023/11/29 00:11:37;;;;;;;;;0.00;0.00;;;;;5.48;100.00;100649.78;6301977;22;65045;-83
2023/11/29 00:14:02;;;;;;;;;0.00;0.00;;;;;5.48;100.00;100643.72;6302641;22;45231;-83
2023/11/29 00:16:28;;;;;;;;;0.00;0.00;;;;;5.45;100.00;100639.47;6304412;22;45533;-83
2023/11/29 00:18:53;;;;;;;;;0.00;0.00;;;;;5.42;100.00;100634.31;6303488;22;72259;-83
2023/11/29 00:21:18;;;;;;;;;0.00;0.00;;;;;5.44;100.00;100640.31;6302152;22;58683;-83
2023/11/29 00:23:44;;;;;;;;;0.00;0.00;;;;;5.41;100.00;100630.03;6302485;22;61587;-83
2023/11/29 00:26:09;;;;;;;;;1.00;1.00;;;;;5.38;100.00;100619.75;6303220;22;45402;-83
2023/11/29 00:28:34;;;;;;;;;0.00;0.00;;;;;5.36;100.00;100627.50;6301220;22;70096;-83
2023/11/29 00:31:00;;;;;;;;;0.00;0.00;;;;;5.36;100.00;100624.06;6304441;22;63745;-83
2023/11/29 00:33:25;;;;;;;;;0.00;0.00;;;;;5.38;100.00;100617.16;6303762;22;57671;-82
2023/11/29 00:35:50;;;;;;;;;0.00;0.00;;;;;5.33;100.00;100617.22;6305056;22;49366;-82
2023/11/29 00:38:16;;;;;;;;;0.00;0.00;;;;;5.35;100.00;100620.63;6303758;22;47699;-83
2023/11/29 00:40:41;;;;;;;;;0.00;0.00;;;;;5.41;100.00;100612.81;6304990;22;64032;-82
2023/11/29 00:43:06;;;;;;;;;0.00;0.00;;;;;5.37;100.00;100618.03;6303416;22;45315;-83
2023/11/29 00:45:32;;;;;;;;;0.00;0.00;;;;;5.37;100.00;100613.72;6302878;22;68808;-83
2023/11/29 00:47:57;;;;;;;;;0.00;0.00;;;;;5.36;100.00;100621.47;6305729;22;45414;-83
2023/11/29 00:50:22;;;;;;;;;0.00;0.00;;;;;5.33;100.00;100621.50;6302509;22;73966;-83
2023/11/29 00:52:48;;;;;;;;;0.00;0.00;;;;;5.34;100.00;100616.31;6304664;22;53749;-83
2023/11/29 00:55:14;;;;;;;;;0.00;0.00;;;;;5.30;100.00;100612.06;6305323;22;54191;-83
2023/11/29 00:57:39;;;;;;;;;0.00;0.00;;;;;5.29;100.00;100607.75;6303457;22;45448;-83
2023/11/29 01:00:05;;;;;;;;;0.00;0.00;;;;;5.31;100.00;100606.06;6304325;22;71203;-83
2023/11/29 01:02:31;;;;;;;;;0.00;0.00;;;;;5.32;100.00;100605.16;6306050;22;45336;-83
2023/11/29 01:04:56;;;;;;;;;0.00;0.00;;;;;5.32;100.00;100596.56;6305942;22;45399;-83
2023/11/29 01:07:21;;;;;;;;;0.00;0.00;;;;;5.39;100.00;100596.50;6302981;22;62679;-83
2023/11/29 01:09:47;;;;;;;;;0.00;0.00;;;;;5.45;100.00;100595.56;6305676;22;45242;-83
2023/11/29 01:12:13;;;;;;;;;0.00;0.00;;;;;5.52;100.00;100591.22;6305498;22;45352;-84
2023/11/29 01:14:38;;;;;;;;;0.00;0.00;;;;;5.52;100.00;100589.47;6303915;22;45427;-84
2023/11/29 01:17:04;;;;;;;;;0.00;0.00;;;;;5.63;100.00;100591.97;6304086;22;46164;-83
2023/11/29 01:19:29;;;;;;;;;0.00;0.00;;;;;5.67;100.00;100591.03;6305551;22;45319;-83
2023/11/29 01:21:54;;;;;;;;;0.00;0.00;;;;;5.75;100.00;100599.56;6303895;22;45270;-83
2023/11/29 01:24:20;;;;;;;;;0.00;0.00;;;;;5.79;100.00;100590.03;6303734;22;45247;-84
2023/11/29 01:26:45;;;;;;;;;0.00;0.00;;;;;5.85;100.00;100590.00;6304491;22;53363;-83
2023/11/29 01:29:10;;;;;;;;;0.00;0.00;;;;;5.93;100.00;100584.72;6303732;22;45430;-84
2023/11/29 01:31:36;;;;;;;;;0.00;0.00;;;;;5.94;100.00;100583.84;6303205;22;45723;-84
2023/11/29 01:34:01;;;;;;;;;0.00;0.00;;;;;6.04;100.00;100600.13;6302377;22;71760;-84
2023/11/29 01:36:26;;;;;;;;;0.00;0.00;;;;;6.08;100.00;100591.47;6276949;22;47742;-84
2023/11/29 01:38:52;;;;;;;;;0.00;0.00;;;;;6.14;100.00;100592.22;6303155;22;53207;-84
2023/11/29 01:41:17;;;;;;;;;0.00;0.00;;;;;6.19;100.00;100589.59;6303041;22;45296;-84
2023/11/29 01:43:43;;;;;;;;;0.00;0.00;;;;;6.27;100.00;100597.25;6305275;22;45221;-83
2023/11/29 01:46:08;;;;;;;;;0.00;0.00;;;;;6.33;100.00;100595.44;6304672;22;60051;-84
2023/11/29 01:48:34;;;;;;;;;0.00;0.00;;;;;6.34;100.00;100586.78;6304720;22;58215;-84
2023/11/29 01:50:59;;;;;;;;;0.00;0.00;;;;;6.38;100.00;100574.69;6304266;22;45451;-84
2023/11/29 01:53:29;;;;;;;;;0.00;0.00;;;;;6.44;100.00;100579.75;6303348;22;45558;-84
2023/11/29 01:55:56;;;;;;;;;0.00;0.00;;;;;6.46;100.00;100575.41;6304808;22;46161;-84
2023/11/29 01:58:23;;;;;;;;;0.00;0.00;;;;;6.54;100.00;100581.34;6303896;22;45413;-84
2023/11/29 02:00:50;;;;;;;;;0.00;0.00;;;;;6.59;100.00;100583.84;6304378;22;45291;-84
2023/11/29 02:03:16;;;;;;;;;0.00;0.00;;;;;6.62;100.00;100582.97;6305358;22;45273;-84
2023/11/29 02:05:41;;;;;;;;;0.00;0.00;;;;;6.69;100.00;100582.00;6304007;22;46145;-84
2023/11/29 02:08:07;;;;;;;;;0.50;0.50;;;;;6.70;100.00;100576.78;6303650;22;45239;-84
2023/11/29 02:10:33;;;;;;;;;0.00;0.00;;;;;6.76;100.00;100578.41;6304093;22;60131;-84
2023/11/29 02:12:59;;;;;;;;;0.00;0.00;;;;;6.82;100.00;100574.91;6303764;22;45328;-84
2023/11/29 02:15:24;;;;;;;;;0.00;0.00;;;;;6.87;100.00;100579.13;6302711;22;65046;-84
2023/11/29 02:17:50;;;;;;;;;0.00;0.00;;;;;6.94;100.00;100577.28;6302885;22;67389;-84
2023/11/29 02:20:17;;;;;;;;;0.00;0.00;;;;;7.04;100.00;100583.13;6303478;22;45321;-84
2023/11/29 02:22:49;;;;;;;;;0.00;0.00;;;;;7.08;100.00;100582.22;6303386;22;45493;-84
2023/11/29 02:25:14;;;;;;;;;0.00;0.00;;;;;7.08;100.00;100579.66;6303697;22;45369;-84
2023/11/29 02:27:40;;;;;;;;;0.00;0.00;;;;;7.14;100.00;100585.56;6304523;22;56363;-84
2023/11/29 02:30:06;;;;;;;;;0.25;0.25;;;;;7.18;100.00;100584.59;6276051;22;64754;-84
2023/11/29 02:32:31;;;;;;;;;0.00;0.00;;;;;7.22;100.00;100581.97;6303479;22;45482;-84
2023/11/29 02:34:56;;;;;;;;;0.00;0.00;;;;;7.25;100.00;100571.56;6303235;22;66344;-84
2023/11/29 02:37:22;;;;;;;;;0.00;0.00;;;;;7.25;100.00;100564.66;6304212;22;72842;-83
2023/11/29 02:39:47;;;;;;;;;0.00;0.00;;;;;7.29;100.00;100555.09;6301823;22;68297;-84
2023/11/29 02:42:13;;;;;;;;;0.00;0.00;;;;;7.32;100.00;100563.66;6303273;22;45411;-84
2023/11/29 02:44:38;;;;;;;;;0.00;0.00;;;;;7.30;100.00;100557.66;6276961;22;62128;-84
2023/11/29 02:47:04;;;;;;;;;0.00;0.00;;;;;7.33;100.00;100556.75;6302123;22;73069;-84
2023/11/29 02:49:29;;;;;;;;;0.00;0.00;;;;;7.36;100.00;100567.06;6305021;22;45367;-84
2023/11/29 02:51:55;;;;;;;;;0.00;0.00;;;;;7.33;100.00;100557.59;6276357;22;45315;-84
2023/11/29 02:54:20;;;;;;;;;0.00;0.00;;;;;7.36;100.00;100548.94;6303299;22;45379;-84
2023/11/29 02:56:45;;;;;;;;;0.00;0.00;;;;;7.34;100.00;100548.97;6276459;22;61819;-84
2023/11/29 02:59:11;;;;;;;;;0.00;0.00;;;;;7.35;100.00;100552.38;6305201;22;45224;-84
2023/11/29 03:01:36;;;;;;;;;0.00;0.00;;;;;7.36;100.00;100552.38;6304770;22;45435;-84
2023/11/29 03:04:01;;;;;;;;;0.00;0.00;;;;;7.36;100.00;100551.53;6303841;22;45298;-84
2023/11/29 03:06:27;;;;;;;;;0.00;0.00;;;;;7.38;100.00;100552.34;6305569;22;45388;-84
2023/11/29 03:08:52;;;;;;;;;0.00;0.00;;;;;7.40;100.00;100548.00;6302591;22;53582;-84
2023/11/29 03:11:18;;;;;;;;;0.00;0.00;;;;;7.38;100.00;100548.91;6277207;22;45485;-85
2023/11/29 03:13:43;;;;;;;;;0.00;0.00;;;;;7.36;100.00;100535.97;6304615;22;45281;-83
2023/11/29 03:16:08;;;;;;;;;0.00;0.00;;;;;7.34;100.00;100543.78;6304090;22;67199;-84
2023/11/29 03:18:34;;;;;;;;;0.00;0.00;;;;;7.35;100.00;100547.22;6303215;22;45237;-84
2023/11/29 03:20:59;;;;;;;;;0.00;0.00;;;;;7.35;100.00;100542.03;6302728;22;47847;-84
2023/11/29 03:23:24;;;;;;;;;0.00;0.00;;;;;7.32;100.00;100537.78;6302344;22;46255;-84
2023/11/29 03:25:49;;;;;;;;;3.00;3.00;;;;;7.34;100.00;100537.75;6302330;22;64154;-84
2023/11/29 03:28:15;;;;;;;;;0.00;0.00;;;;;7.29;100.00;100530.06;6304366;22;52082;-84
2023/11/29 03:30:40;;;;;;;;;0.00;0.00;;;;;7.31;100.00;100530.03;6304120;22;63687;-84
2023/11/29 03:33:05;;;;;;;;;0.00;0.00;;;;;7.30;100.00;100518.84;6303492;22;71986;-83
2023/11/29 03:35:31;;;;;;;;;0.00;0.00;;;;;7.29;100.00;100518.84;6302701;22;53387;-84
2023/11/29 03:37:56;;;;;;;;;0.00;0.00;;;;;7.27;100.00;100516.28;6302455;22;51135;-84
2023/11/29 03:40:21;;;;;;;;;0.00;0.00;;;;;7.26;100.00;100508.53;6302380;22;61802;-84
2023/11/29 03:42:47;;;;;;;;;0.00;0.00;;;;;7.23;100.00;100508.63;6304779;22;72602;-84
2023/11/29 03:45:12;;;;;;;;;0.00;0.00;;;;;7.28;100.00;100519.72;6304164;22;65926;-84
2023/11/29 03:47:37;;;;;;;;;0.00;0.00;;;;;7.26;100.00;100516.31;6303856;22;68053;-84
2023/11/29 03:50:03;;;;;;;;;0.00;0.00;;;;;7.26;100.00;100511.13;6302733;22;58717;-83
2023/11/29 03:52:28;;;;;;;;;0.00;0.00;;;;;7.25;100.00;100499.94;6303849;22;45217;-84
2023/11/29 03:54:54;;;;;;;;;0.00;0.00;;;;;7.24;100.00;100500.81;6302938;22;45289;-84
2023/11/29 03:57:20;;;;;;;;;0.00;0.00;;;;;7.24;100.00;100494.78;6303133;22;45361;-84
2023/11/29 03:59:45;;;;;;;;;0.00;0.00;;;;;7.23;100.00;100487.91;6303693;22;45305;-84
2023/11/29 04:02:10;;;;;;;;;0.00;0.00;;;;;7.22;100.00;100491.38;6304593;22;45254;-83
2023/11/29 04:04:38;;;;;;;;;0.00;0.00;;;;;7.22;100.00;100491.38;6304169;22;45242;-84
2023/11/29 04:07:04;;;;;;;;;0.00;0.00;;;;;7.22;100.00;100491.38;6305528;22;45244;-84
2023/11/29 04:09:29;;;;;;;;;0.00;0.00;;;;;7.16;100.00;100484.56;6277789;22;51363;-84
2023/11/29 04:11:55;;;;;;;;;0.00;0.00;;;;;7.11;100.00;100479.50;6305461;22;46311;-84
2023/11/29 04:14:20;;;;;;;;;0.00;0.00;;;;;7.06;100.00;100475.28;6303414;22;56893;-83
2023/11/29 04:16:45;;;;;;;;;0.00;0.00;;;;;7.05;100.00;100479.59;6303724;22;62195;-83
2023/11/29 04:19:11;;;;;;;;;0.00;0.00;;;;;7.03;100.00;100480.50;6302927;22;67920;-84
2023/11/29 04:21:36;;;;;;;;;0.00;0.00;;;;;6.96;100.00;100472.88;6304433;22;66711;-84
2023/11/29 04:24:02;;;;;;;;;0.00;0.00;;;;;6.88;100.00;100466.13;6303518;22;53052;-84
2023/11/29 04:26:31;;;;;;;;;0.00;0.00;;;;;6.86;100.00;100475.66;6304364;22;45290;-84
2023/11/29 04:28:57;;;;;;;;;0.00;0.00;;;;;6.86;100.00;100476.50;6305695;22;45458;-83
2023/11/29 04:31:23;;;;;;;;;0.00;0.00;;;;;6.75;100.00;100473.25;6305664;22;46351;-84
2023/11/29 04:33:49;;;;;;;;;0.00;0.00;;;;;6.68;100.00;100476.81;6305511;22;45259;-84
2023/11/29 04:36:14;;;;;;;;;0.00;0.00;;;;;6.62;100.00;100470.00;6305735;22;45426;-84
2023/11/29 04:38:39;;;;;;;;;0.00;0.00;;;;;6.56;100.00;100458.03;6302820;22;69114;-83
2023/11/29 04:41:05;;;;;;;;;0.00;0.00;;;;;6.55;100.00;100468.41;6304613;22;46388;-83
2023/11/29 04:43:30;;;;;;;;;0.00;0.00;;;;;6.49;100.00;100464.19;6304000;22;45302;-84
2023/11/29 04:45:56;;;;;;;;;0.00;0.00;;;;;6.43;100.00;100460.88;6305195;22;59507;-84
2023/11/29 04:48:22;;;;;;;;;0.00;0.00;;;;;6.40;100.00;100462.59;6306034;22;45215;-83
2023/11/29 04:50:47;;;;;;;;;0.00;0.00;;;;;6.36;100.00;100452.34;6304702;22;46129;-83
2023/11/29 04:53:13;;;;;;;;;0.00;0.00;;;;;6.34;100.00;100456.69;6304540;22;45310;-83
2023/11/29 04:55:38;;;;;;;;;0.00;0.00;;;;;6.26;100.00;100441.31;6305301;22;64399;-84
2023/11/29 04:58:03;;;;;;;;;0.00;0.00;;;;;6.27;100.00;100455.06;6304746;22;70350;-84
2023/11/29 05:00:28;;;;;;;;;0.00;0.00;;;;;6.22;100.00;100451.69;6304776;22;70474;-84
2023/11/29 05:02:55;;;;;;;;;0.00;0.00;;;;;6.22;100.00;100454.28;6303180;22;71983;-84
2023/11/29 05:05:20;;;;;;;;;0.00;0.00;;;;;6.14;100.00;100447.50;6303800;22;45296;-84
2023/11/29 05:07:46;;;;;;;;;0.00;0.00;;;;;6.11;100.00;100441.53;6304734;22;45698;-84
2023/11/29 05:10:11;;;;;;;;;0.00;0.00;;;;;6.09;100.00;100444.16;6305403;22;46010;-84
2023/11/29 05:12:37;;;;;;;;;0.00;0.00;;;;;6.06;100.00;100438.19;6306019;22;45197;-84
2023/11/29 05:15:02;;;;;;;;;0.00;0.00;;;;;6.03;100.00;100430.47;6304964;22;55520;-83
2023/11/29 05:17:28;;;;;;;;;0.00;0.00;;;;;6.05;100.00;100432.13;6305464;22;45480;-83
2023/11/29 05:19:53;;;;;;;;;0.00;0.00;;;;;6.01;100.00;100423.56;6303351;22;71462;-84
2023/11/29 05:22:18;;;;;;;;;0.00;0.00;;;;;6.00;100.00;100434.81;6302533;22;73486;-84
2023/11/29 05:24:43;;;;;;;;;0.00;0.00;;;;;6.03;100.00;100425.28;6303752;22;55040;-84
2023/11/29 05:27:09;;;;;;;;;0.00;0.00;;;;;6.01;100.00;100435.66;6303604;22;45476;-84
2023/11/29 05:29:35;;;;;;;;;0.00;0.00;;;;;6.04;100.00;100432.19;6304537;22;75491;-84
2023/11/29 05:32:00;;;;;;;;;0.00;0.00;;;;;6.01;100.00;100420.97;6302290;22;72036;-84
2023/11/29 05:34:26;;;;;;;;;0.00;0.00;;;;;6.04;100.00;100427.00;6305833;22;45243;-84
2023/11/29 05:36:51;;;;;;;;;3.00;3.00;;;;;6.03;100.00;100428.72;6304637;22;45238;-84
2023/11/29 05:39:19;;;;;;;;;0.00;0.00;;;;;6.00;100.00;100424.47;6303790;22;45298;-84
2023/11/29 05:41:45;;;;;;;;;0.00;0.00;;;;;5.94;100.00;100416.78;6305517;22;45216;-83
2023/11/29 05:44:10;;;;;;;;;0.00;0.00;;;;;5.95;100.00;100421.09;6304379;22;45261;-83
2023/11/29 05:46:35;;;;;;;;;0.00;0.00;;;;;6.00;100.00;100431.38;6302986;22;69828;-83
2023/11/29 05:49:00;;;;;;;;;0.00;0.00;;;;;6.05;100.00;100423.53;6302489;22;75697;-84
2023/11/29 05:51:26;;;;;;;;;0.33;0.33;;;;;6.11;100.00;100429.47;6304444;22;69694;-84
2023/11/29 05:53:52;;;;;;;;;0.00;0.00;;;;;6.18;100.00;100430.22;6303879;22;45279;-84
2023/11/29 05:56:17;;;;;;;;;0.00;0.00;;;;;6.24;100.00;100435.31;6305703;22;45340;-83
2023/11/29 05:58:43;;;;;;;;;0.00;0.00;;;;;6.27;100.00;100432.66;6304723;22;68379;-83
2023/11/29 06:01:09;;;;;;;;;0.00;0.00;;;;;6.32;100.00;100420.50;6305400;22;45311;-83
2023/11/29 06:03:34;;;;;;;;;0.00;0.00;;;;;6.37;100.00;100421.31;6303759;22;45511;-84
2023/11/29 06:05:59;;;;;;;;;0.00;0.00;;;;;6.43;100.00;100417.75;6303476;22;60751;-83
2023/11/29 06:08:25;;;;;;;;;0.00;0.00;;;;;6.48;100.00;100417.66;6304028;22;75565;-84
2023/11/29 06:10:50;;;;;;;;;0.00;0.00;;;;;6.52;100.00;100416.72;6303495;22;45286;-83
2023/11/29 06:13:18;;;;;;;;;0.00;0.00;;;;;6.51;100.00;100423.63;6304482;22;67649;-83
2023/11/29 06:15:43;;;;;;;;;0.00;0.00;;;;;6.60;100.00;100422.63;6303255;22;45434;-84
2023/11/29 06:18:10;;;;;;;;;0.00;0.00;;;;;6.64;100.00;100420.84;6305383;22;45292;-84
2023/11/29 06:20:38;;;;;;;;;0.00;0.00;;;;;6.68;100.00;100423.34;6305189;22;45256;-84
2023/11/29 06:23:05;;;;;;;;;0.00;0.00;;;;;6.72;100.00;100427.59;6305916;22;45177;-83
2023/11/29 06:25:30;;;;;;;;;0.00;0.00;;;;;6.75;100.00;100431.84;6305024;22;45286;-84
2023/11/29 06:27:56;;;;;;;;;0.00;0.00;;;;;6.78;100.00;100430.06;6305440;22;45213;-84
2023/11/29 06:30:21;;;;;;;;;0.00;0.00;;;;;6.77;100.00;100425.75;6304892;22;45251;-84
2023/11/29 06:32:46;;;;;;;;;0.00;0.00;;;;;6.81;100.00;100423.97;6303344;22;45516;-84
2023/11/29 06:35:12;;;;;;;;;0.00;0.00;;;;;6.81;100.00;100418.78;6277592;22;45491;-83
2023/11/29 06:37:38;;;;;;;;;0.00;0.00;;;;;6.83;100.00;100419.63;6302287;22;65502;-84
2023/11/29 06:40:05;;;;;;;;;0.00;0.00;;;;;6.86;100.00;100421.31;6303366;22;45324;-84
2023/11/29 06:42:30;;;;;;;;;0.00;0.00;;;;;6.83;100.00;100419.63;6303637;22;45382;-84
2023/11/29 06:44:56;;;;;;;;;0.00;0.00;;;;;6.81;100.00;100420.53;6302590;22;67005;-84
2023/11/29 06:47:21;;;;;;;;;0.00;0.00;;;;;6.84;100.00;100420.50;6302788;22;64820;-84
2023/11/29 06:49:46;;;;;;;;;0.00;0.00;;;;;6.81;100.00;100421.38;6304348;22;67255;-83
2023/11/29 06:52:12;;;;;;;;;0.00;0.00;;;;;6.82;100.00;100412.75;6303973;22;45375;-83
2023/11/29 06:54:38;;;;;;;;;0.00;0.00;;;;;6.83;100.00;100411.84;6305345;22;45781;-83
2023/11/29 06:57:03;;;;;;;;;0.00;0.00;;;;;6.94;100.00;100412.50;6303163;22;47126;-84
2023/11/29 06:59:30;;;;;;;;;0.00;0.00;;;;;6.96;100.00;100408.19;6303513;22;45310;-83
2023/11/29 07:01:57;;;;;;;;;0.00;0.00;;;;;6.98;100.00;100408.13;6305197;22;45216;-84
2023/11/29 07:04:22;;;;;;;;;0.00;0.00;;;;;6.94;100.00;100396.97;6304808;22;45358;-84
2023/11/29 07:06:48;;;;;;;;;0.00;0.00;;;;;6.95;100.00;100401.28;6303542;22;55172;-82
2023/11/29 07:09:16;;;;;;;;;0.00;0.00;;;;;6.94;100.00;100402.16;6304895;22;45326;-84
2023/11/29 07:11:41;;;;;;;;;0.00;0.00;;;;;6.95;100.00;100390.09;6305038;22;45247;-83
2023/11/29 07:14:07;;;;;;;;;0.00;0.00;;;;;6.96;100.00;100397.81;6304047;22;45277;-83
2023/11/29 07:16:32;;;;;;;;;0.00;0.00;;;;;6.96;100.00;100396.94;6303848;22;66661;-84
2023/11/29 07:18:57;;;;;;;;;0.00;0.00;;;;;6.94;100.00;100396.97;6303574;22;45198;-84
2023/11/29 07:21:23;;;;;;;;;0.00;0.00;;;;;6.98;100.00;100401.22;6304264;22;45138;-84
2023/11/29 07:23:48;;;;;;;;;0.00;0.00;;;;;6.98;100.00;100398.66;6303880;22;45422;-85
2023/11/29 07:26:13;;;;;;;;;0.00;0.00;;;;;7.00;100.00;100403.75;6304128;22;75849;-84
2023/11/29 07:28:40;;;;;;;;;0.00;0.00;;;;;7.01;100.00;100400.31;6304225;22;59343;-85
2023/11/29 07:31:08;;;;;;;;;0.00;0.00;;;;;7.04;100.00;100397.69;6303041;22;45356;-85
2023/11/29 07:33:34;;;;;;;;;0.00;0.00;;;;;7.07;100.00;100401.94;6303275;22;45376;-84
2023/11/29 07:35:59;;;;;;;;;0.00;0.00;;;;;7.11;100.00;100396.66;6304779;22;53677;-86
2023/11/29 07:38:26;;;;;;;;;0.00;0.00;;;;;7.16;100.00;100404.34;6275858;22;72172;-86
2023/11/29 07:40:52;;;;;;;;;0.00;0.00;;;;;7.22;100.00;100409.38;6304381;22;45234;-87
2023/11/29 07:43:18;;;;;;;;;0.00;0.00;;;;;7.27;100.00;100407.56;6304928;22;45359;-85
2023/11/29 07:45:43;;;;;;;;;0.00;0.00;;;;;7.35;100.00;100409.97;6302413;22;66360;-85
2023/11/29 07:48:08;;;;;;;;;0.00;0.00;;;;;7.48;100.00;100408.81;6303979;22;64688;-85
2023/11/29 07:50:34;;;;;;;;;0.00;0.00;;;;;7.45;100.00;100408.91;6304772;22;50452;-84
2023/11/29 07:52:59;;;;;;;;;0.00;0.00;;;;;7.51;100.00;100410.53;6303755;22;64571;-84
2023/11/29 07:55:24;;;;;;;;;0.00;0.00;;;;;7.55;100.00;100413.00;6304260;22;61160;-84
2023/11/29 07:57:50;;;;;;;;;0.00;0.00;;;;;7.60;100.00;100412.91;6302238;22;60662;-85
2023/11/29 08:00:17;;;;;;;;;0.00;0.00;;;;;7.65;100.00;100416.25;6303866;22;45358;-86
2023/11/29 08:02:42;;;;;;;;;0.00;0.00;;;;;7.73;100.00;100416.94;6302402;22;45369;-83
2023/11/29 08:05:08;;;;;;;;;0.00;0.00;;;;;7.75;100.00;100419.50;6304666;22;45254;-82
2023/11/29 08:07:33;;;;;;;;;0.00;0.00;;;;;7.71;100.00;100413.53;6304648;22;45204;-85
2023/11/29 08:10:01;;;;;;;;;0.00;0.00;;;;;7.74;100.00;100408.28;6303185;22;45319;-85
2023/11/29 08:12:28;;;;;;;;;0.00;0.00;;;;;7.79;100.00;100413.34;6303451;22;45174;-86
2023/11/29 08:14:53;;;;;;;;;0.50;0.50;;;;;7.80;100.00;100402.09;6304068;22;45381;-86
2023/11/29 08:17:49;;;;;;;;;0.00;0.00;;;;;7.86;100.00;100406.28;6304368;22;47837;-91
2023/11/29 08:20:07;;;;;;;;;0.00;0.00;;;;;7.88;100.00;100410.53;6298095;22;45135;-88
2023/11/29 08:22:33;;;;;;;;;0.75;0.75;;;;;7.91;100.00;100412.19;6304756;22;45323;-88
2023/11/29 08:24:59;;;;;;;;;0.00;0.00;;;;;7.97;100.00;100403.44;6303487;22;46064;-88
2023/11/29 08:27:24;;;;;;;;;0.00;0.00;;;;;8.00;100.00;100406.81;6303501;22;45352;-87
2023/11/29 08:29:50;;;;;;;;;0.00;0.00;;;;;8.07;100.00;100407.53;6302787;22;45383;-87
2023/11/29 08:32:15;;;;;;;;;0.00;0.00;;;;;8.19;100.00;100406.38;6303401;22;45318;-87
2023/11/29 08:34:41;;;;;;;;;0.00;0.00;;;;;8.22;100.00;100401.97;6303753;22;45390;-88
2023/11/29 08:37:06;;;;;;;;;0.00;0.00;;;;;8.28;100.00;100409.59;6303389;22;45350;-88
2023/11/29 08:39:32;;;;;;;;;0.00;0.00;;;;;8.27;100.00;100400.13;6276788;22;63468;-88
2023/11/29 08:41:57;;;;;;;;;0.00;0.00;;;;;8.33;100.00;100397.34;6275917;22;59945;-87
2023/11/29 08:44:23;;;;;;;;;0.00;0.00;;;;;8.31;100.00;100393.13;6301951;22;46320;-88
2023/11/29 08:46:48;;;;;;;;;0.00;0.00;;;;;8.40;100.00;100394.63;6277652;22;45302;-88
2023/11/29 08:49:15;;;;;;;;;0.00;0.00;;;;;8.42;100.00;100390.28;6276659;22;54472;-88
2023/11/29 08:51:44;;;;;;;;;0.00;0.00;;;;;8.48;100.00;100379.75;6303880;22;45477;-88
2023/11/29 08:54:10;;;;;;;;;3.00;3.00;;;;;8.55;100.00;100386.47;6273635;22;47153;-88
2023/11/29 08:56:36;;;;;;;;;0.00;0.00;;;;;8.64;100.00;100386.25;6304560;22;45366;-88
2023/11/29 08:59:04;;;;;;;;;0.00;0.00;;;;;8.72;100.00;100378.25;6305007;22;45275;-87
2023/11/29 09:01:31;;;;;;;;;0.00;0.00;;;;;8.73;100.00;100385.16;6307503;22;45206;-88
2023/11/29 09:03:56;;;;;;;;;0.00;0.00;;;;;8.78;100.00;100378.06;6281373;22;48170;-87
2023/11/29 09:06:22;;;;;;;;;0.00;0.00;;;;;8.82;100.00;100382.31;6306727;22;45926;-88
2023/11/29 09:08:48;;;;;;;;;0.00;0.00;;;;;8.88;100.00;100382.13;6281987;22;64753;-88
2023/11/29 09:11:13;;;;;;;;;0.00;0.00;;;;;8.96;100.00;100379.31;6309851;22;45352;-88
2023/11/29 09:13:39;;;;;;;;;11.25;11.25;;;;;8.96;100.00;100383.66;6281145;22;47930;-88
2023/11/29 09:16:05;;;;;;;;;0.50;0.00;;;;;8.94;100.00;100378.50;6304936;22;45477;-87
2023/11/29 09:18:31;;;;;;;;;0.00;0.00;;;;;8.95;100.00;100375.00;6304520;22;45453;-88
2023/11/29 09:20:59;;;;;;;;;0.50;0.50;;;;;9.00;100.00;100390.47;6304940;22;45261;-88
2023/11/29 09:23:24;;;;;;;;;0.00;0.00;;;;;8.99;100.00;100387.03;6305022;22;46859;-88
2023/11/29 09:25:50;;;;;;;;;0.00;0.00;;;;;9.00;100.00;100387.88;6304334;22;45230;-88
2023/11/29 09:28:16;;;;;;;;;0.00;0.00;;;;;9.01;100.00;100387.00;6277953;22;60607;-89
2023/11/29 09:30:42;;;;;;;;;0.00;0.00;;;;;9.04;100.00;100384.28;6304509;22;45598;-87
2023/11/29 09:33:07;;;;;;;;;0.00;0.00;;;;;9.04;100.00;100382.53;6304945;22;45435;-88
2023/11/29 09:35:33;;;;;;;;;0.00;0.00;;;;;9.08;100.00;100378.97;6303845;22;58846;-88
2023/11/29 09:37:58;;;;;;;;;0.00;0.00;;;;;9.16;100.00;100383.09;6305922;22;46832;-87
2023/11/29 09:40:24;;;;;;;;;0.00;0.00;;;;;9.15;100.00;100384.84;6303735;22;45203;-88
2023/11/29 09:42:52;;;;;;;;;0.00;0.00;;;;;9.22;100.00;100385.50;6303913;22;46338;-88
2023/11/29 09:45:24;;;;;;;;;0.00;0.00;;;;;9.22;100.00;100375.13;6303910;22;45328;-86
2023/11/29 09:47:50;;;;;;;;;0.75;0.75;;;;;9.24;100.00;100387.16;6306452;22;45243;-87
2023/11/29 09:50:17;;;;;;;;;1.00;1.00;;;;;9.31;100.00;100387.84;6303764;22;45455;-87
2023/11/29 09:52:43;;;;;;;;;0.00;0.00;;;;;9.34;100.00;100390.34;6303245;22;45298;-87
2023/11/29 09:55:09;;;;;;;;;0.75;0.75;;;;;9.50;100.00;100388.16;6304068;22;45239;-88
2023/11/29 09:57:35;;;;;;;;;0.00;0.00;;;;;9.62;100.00;100382.59;6304901;22;46192;-88
2023/11/29 10:00:02;;;;;;;;;0.00;0.00;;;;;9.82;100.00;100381.94;6304601;22;45245;-88
2023/11/29 10:02:31;;;;;;;;;0.00;0.00;;;;;9.96;100.00;100373.72;6303797;22;47221;-88
2023/11/29 10:04:58;;;;;;;;;0.75;0.75;;;;;10.06;100.00;100362.09;6304749;22;45348;-87
2023/11/29 10:07:24;;;;;;;;;0.00;0.00;;;;;10.19;100.00;100367.75;6304520;22;45208;-87
2023/11/29 10:09:49;;;;;;;;;6.00;6.00;;;;;10.33;100.00;100362.13;6303385;22;48800;-88
2023/11/29 10:12:14;;;;;;;;;0.00;0.00;;;;;10.44;100.00;100361.78;6303716;22;52299;-87
2023/11/29 10:14:40;;;;;;;;;0.00;0.00;;;;;10.45;100.00;100366.06;6304362;22;45393;-87
2023/11/29 10:17:07;;;;;;;;;0.00;0.00;;;;;10.51;100.00;100360.66;6304324;22;45430;-87
2023/11/29 10:19:33;;;;;;;;;0.00;0.00;;;;;10.64;100.00;100361.94;6303868;22;45465;-88
2023/11/29 10:22:01;;;;;;;;;0.00;0.00;;;;;10.81;100.00;100350.91;6304666;22;45980;-88
2023/11/29 10:24:27;;;;;;;;;0.00;0.00;;;;;10.94;100.00;100350.44;6302991;22;63353;-88
2023/11/29 10:26:53;;;;;;;;;4.00;4.00;;;;;11.15;100.00;100364.47;6303583;22;45730;-88
2023/11/29 10:29:18;;;;;;;;;0.75;0.75;;;;;11.19;100.00;100351.25;6303725;22;45251;-88
2023/11/29 10:31:46;;;;;;;;;5.00;3.00;;;;;11.20;100.00;100360.78;6305346;22;46257;-87
2023/11/29 10:34:14;;;;;;;;;0.00;0.00;;;;;11.31;100.00;100359.50;6304078;22;45623;-87
2023/11/29 10:36:40;;;;;;;;;0.00;0.00;;;;;11.43;100.00;100346.84;6304221;22;45352;-87
2023/11/29 10:39:12;;;;;;;;;0.00;0.00;;;;;11.59;100.00;100334.09;6278497;22;45450;-88
2023/11/29 10:41:43;;;;;;;;;0.00;0.00;;;;;11.72;100.00;100321.41;6278069;22;47005;-88
2023/11/29 10:44:10;;;;;;;;;0.50;0.50;;;;;11.84;100.00;100329.66;6303454;22;45477;-87
2023/11/29 10:46:36;;;;;;;;;0.00;0.00;;;;;11.99;100.00;100323.81;6304084;22;45296;-88
2023/11/29 10:49:26;;;;;;;;;0.00;0.00;;;;;12.07;100.00;100319.16;6303570;22;45425;-86
2023/11/29 10:51:51;;;;;;;;;0.00;0.00;;;;;12.24;100.00;100308.00;6303501;22;45335;-86
2023/11/29 10:54:18;;;;;;;;;0.00;0.00;;;;;12.35;100.00;100308.41;6302762;22;54050;-83
2023/11/29 10:56:44;;;;;;;;;3.00;3.00;;;;;12.37;100.00;100303.13;6300645;22;69555;-85
2023/11/29 10:59:30;;;;;;;;;0.00;0.00;;;;;12.57;100.00;100308.31;6278189;22;45241;-91
2023/11/29 11:01:57;;;;;;;;;0.00;0.00;;;;;12.75;100.00;100313.63;6277235;22;47265;-86
2023/11/29 11:04:30;;;;;;;;;0.00;0.00;;;;;13.08;100.00;100303.41;6303953;22;45368;-86
2023/11/29 11:07:02;;;;;;;;;0.00;0.00;;;;;13.40;100.00;100297.63;6303572;22;45231;-89
2023/11/29 11:09:48;;;;;;;;;0.00;0.00;;;;;14.17;100.00;100310.41;6305214;22;45485;-96
2023/11/29 11:12:31;;;;;;;;;0.00;0.00;;;;;14.41;100.00;100307.44;6307323;22;46138;-89
2023/11/29 11:15:04;;;;;;;;;0.00;0.00;;;;;14.69;100.00;100297.25;6278991;22;45290;-91
2023/11/29 11:17:32;;;;;;;;;0.75;0.75;;;;;14.61;100.00;100304.66;6305013;22;45301;-90
2023/11/29 11:20:06;;;;;;;;;0.75;0.25;;;;;14.45;100.00;100288.00;6279269;22;45238;-88